Time;durP1;ratioP1;P1;durP2;ratioP2;P2;SDS_P1;SDS_P2;PMS_P1;PMS_P2;Temp;Humidity;BMP_temperature;BMP_pressure;BME280_temperature;BME280_humidity;BME280_pressure;Samples;Min_cycle;Max_cycle;Signal;HPM_P1;HPM_P2
2022/02/14 00:01:30;;;;;;;19.92;11.02;;;;;;;3.59;56.63;95705.44;4957581;29;20036;-80
2022/02/14 00:03:56;;;;;;;16.98;11.50;;;;;;;3.51;56.64;95706.25;4957659;23;20047;-80
2022/02/14 00:06:21;;;;;;;25.02;11.23;;;;;;;3.51;57.01;95701.13;4956534;29;20038;-79
2022/02/14 00:08:47;;;;;;;18.67;10.27;;;;;;;3.49;57.15;95705.63;4957300;28;20031;-80
2022/02/14 00:11:12;;;;;;;17.52;11.02;;;;;;;3.64;56.54;95702.38;4957910;29;20043;-80
2022/02/14 00:13:38;;;;;;;21.40;10.98;;;;;;;3.67;56.72;95697.69;4956725;28;20031;-80
2022/02/14 00:16:04;;;;;;;17.15;11.63;;;;;;;3.71;56.56;95698.13;4961704;28;20414;-80
2022/02/14 00:18:29;;;;;;;16.73;11.18;;;;;;;3.54;56.27;95699.97;4939486;29;20426;-80
2022/02/14 00:20:55;;;;;;;22.33;11.50;;;;;;;3.59;56.82;95706.25;4939365;29;20432;-80
2022/02/14 00:23:20;;;;;;;23.92;12.05;;;;;;;3.56;56.58;95698.84;4956298;29;20123;-80
2022/02/14 00:25:46;;;;;;;25.05;11.50;;;;;;;3.53;56.57;95694.03;4950625;29;20063;-80
2022/02/14 00:28:17;;;;;;;21.60;11.88;;;;;;;3.55;56.56;95694.66;4966216;28;20031;-80
2022/02/14 00:30:42;;;;;;;21.17;12.05;;;;;;;3.61;56.44;95696.59;5264717;23;20058;-80
2022/02/14 00:33:08;;;;;;;22.63;11.85;;;;;;;3.52;56.89;95691.63;4976480;28;20035;-79
2022/02/14 00:35:33;;;;;;;22.65;11.85;;;;;;;3.45;56.99;95688.94;4952209;28;20023;-79
2022/02/14 00:37:59;;;;;;;13.98;10.73;;;;;;;3.40;57.40;95688.59;4943123;28;20050;-79
2022/02/14 00:40:25;;;;;;;20.75;11.27;;;;;;;3.46;56.91;95690.53;4951191;28;20031;-80
2022/02/14 00:42:50;;;;;;;20.25;11.00;;;;;;;3.52;57.05;95689.84;4958521;28;20675;-79
2022/02/14 00:45:16;;;;;;;25.38;12.48;;;;;;;3.52;56.99;95686.50;4942447;28;20135;-79
2022/02/14 00:47:41;;;;;;;18.30;11.00;;;;;;;3.60;57.00;95689.03;4959125;28;20458;-79
2022/02/14 00:50:08;;;;;;;24.63;11.10;;;;;;;3.59;56.46;95680.53;4989654;23;20046;-77
2022/02/14 00:52:34;;;;;;;16.45;12.35;;;;;;;3.66;56.54;95674.72;4995592;28;20075;-78
2022/02/14 00:54:59;;;;;;;20.38;11.48;;;;;;;3.60;56.64;95681.31;4967159;28;20442;-79
2022/02/14 00:57:25;;;;;;;16.92;10.65;;;;;;;3.52;56.72;95679.56;4927621;28;20161;-79
2022/02/14 00:59:51;;;;;;;19.92;11.05;;;;;;;3.48;56.89;95668.03;4948097;23;20450;-79
2022/02/14 01:02:16;;;;;;;17.38;10.75;;;;;;;3.53;57.17;95670.09;4938282;29;20047;-79
2022/02/14 01:04:42;;;;;;;22.75;11.07;;;;;;;3.47;57.20;95663.84;4936105;29;20090;-79
2022/02/14 01:07:07;;;;;;;19.67;10.40;;;;;;;3.44;57.14;95664.19;4936371;29;20035;-78
2022/02/14 01:09:33;;;;;;;20.52;10.38;;;;;;;3.51;57.29;95662.53;4921870;29;20040;-79
2022/02/14 01:11:58;;;;;;;24.50;11.40;;;;;;;3.66;56.77;95660.06;4941462;23;20044;-80
2022/02/14 01:14:25;;;;;;;18.80;11.60;;;;;;;3.63;56.90;95655.28;5040420;23;20048;31
2022/02/14 01:16:50;;;;;;;15.10;11.18;;;;;;;3.67;56.74;95655.72;4916671;29;20093;-78
2022/02/14 01:19:16;;;;;;;17.70;10.52;;;;;;;3.79;56.12;95656.97;4919787;29;20024;-79
2022/02/14 01:21:42;;;;;;;21.08;11.57;;;;;;;3.86;56.47;95645.81;4921557;29;20051;-79
2022/02/14 01:24:08;;;;;;;24.25;11.07;;;;;;;3.84;55.99;95646.97;4919474;29;20032;-79
2022/02/14 01:26:33;;;;;;;18.52;9.80;;;;;;;3.81;55.81;95648.09;4905840;29;20044;-79
2022/02/14 01:31:47;;;;;;;18.52;10.45;;;;;;;3.81;56.21;95642.16;4997555;28;20450;-79
2022/02/14 01:34:13;;;;;;;17.20;11.38;;;;;;;3.90;56.07;95646.28;4996215;28;20034;-78
2022/02/14 01:36:38;;;;;;;19.80;10.05;;;;;;;3.97;55.83;95644.63;4977775;28;20102;-79
2022/02/14 01:39:04;;;;;;;17.27;10.35;;;;;;;3.96;55.92;95648.19;4996412;28;20426;-79
2022/02/14 01:41:29;;;;;;;18.25;9.77;;;;;;;3.87;55.65;95651.75;4976643;28;20110;-79
2022/02/14 01:43:55;;;;;;;19.08;10.45;;;;;;;3.91;56.09;95642.75;4966387;23;20051;-79
2022/02/14 01:46:20;;;;;;;18.48;10.82;;;;;;;3.97;56.41;95639.50;4945244;29;20035;-79
2022/02/14 01:48:46;;;;;;;17.77;10.02;;;;;;;3.96;55.89;95635.31;4929660;29;20042;-79
2022/02/14 01:51:11;;;;;;;17.13;11.48;;;;;;;3.79;56.28;95639.75;4913804;29;20039;-80
2022/02/14 01:53:37;;;;;;;18.55;10.18;;;;;;;3.78;56.46;95621.91;4929961;29;20039;-80
2022/02/14 01:56:02;;;;;;;19.23;10.95;;;;;;;3.70;56.78;95629.66;4930771;29;20151;-80
2022/02/14 01:58:28;;;;;;;19.40;10.70;;;;;;;3.62;57.14;95627.94;4913811;29;20031;-79
2022/02/14 02:00:53;;;;;;;21.98;11.23;;;;;;;3.53;57.24;95619.47;4929670;29;20043;-79
2022/02/14 02:03:19;;;;;;;23.25;11.45;;;;;;;3.47;57.54;95624.50;4926880;29;20035;-79
2022/02/14 02:05:47;;;;;;;24.83;11.70;;;;;;;3.34;58.26;95619.06;4946723;29;20047;-80
2022/02/14 02:08:13;;;;;;;25.15;11.40;;;;;;;3.32;57.98;95621.81;4930494;29;20039;-78
2022/02/14 02:10:39;;;;;;;20.10;11.52;;;;;;;3.27;58.73;95616.38;4897643;29;20035;-79
2022/02/14 02:13:04;;;;;;;27.00;12.35;;;;;;;3.46;57.78;95623.69;4928980;29;20031;-79
2022/02/14 02:15:31;;;;;;;17.08;11.00;;;;;;;3.55;58.04;95619.28;4913862;29;20042;-79
2022/02/14 02:17:56;;;;;;;18.58;12.15;;;;;;;3.55;57.71;95617.53;4933548;23;20512;-79
2022/02/14 02:20:22;;;;;;;21.50;11.80;;;;;;;3.52;57.33;95617.06;4936169;29;20130;-79
2022/02/14 02:22:49;;;;;;;23.08;12.85;;;;;;;3.50;57.54;95612.09;4948607;23;20120;-79
2022/02/14 02:25:14;;;;;;;23.83;12.02;;;;;;;3.48;57.88;95600.38;4936022;29;20040;-79
2022/02/14 02:27:42;;;;;;;20.75;11.98;;;;;;;3.55;57.72;95596.16;4919274;29;20039;-79
2022/02/14 02:30:08;;;;;;;19.05;12.95;;;;;;;3.59;57.75;95597.44;4903505;29;20045;-79
2022/02/14 02:32:34;;;;;;;19.70;11.90;;;;;;;3.67;57.05;95596.56;4919543;29;20113;-79
2022/02/14 02:35:01;;;;;;;20.75;11.70;;;;;;;3.71;56.53;95593.50;4934658;29;20103;-79
2022/02/14 02:37:38;;;;;;;18.42;12.18;;;;;;;3.70;56.97;95599.59;4901138;29;20039;-79
2022/02/14 02:40:04;;;;;;;23.08;12.30;;;;;;;3.78;56.60;95594.44;4936471;29;20044;-78
2022/02/14 02:42:30;;;;;;;17.38;12.10;;;;;;;3.83;56.97;95588.75;4938043;29;20035;-79
2022/02/14 02:44:55;;;;;;;16.35;11.70;;;;;;;3.91;56.52;95596.44;4938484;29;20508;-79
2022/02/14 02:47:22;;;;;;;20.90;12.98;;;;;;;3.99;56.45;95603.28;4907208;29;20084;-79
2022/02/14 02:49:47;;;;;;;20.38;12.65;;;;;;;4.00;55.95;95599.75;4937959;29;20063;-79
2022/02/14 02:52:15;;;;;;;22.45;13.18;;;;;;;4.02;56.14;95598.59;4922599;29;20040;-79
2022/02/14 02:54:40;;;;;;;20.55;12.43;;;;;;;4.01;56.38;95602.16;4938542;29;20123;-79
2022/02/14 02:57:06;;;;;;;21.30;12.85;;;;;;;4.09;56.30;95603.88;4937814;29;20563;-79
2022/02/14 02:59:34;;;;;;;17.33;13.40;;;;;;;4.23;55.77;95600.56;4967400;23;20040;-79
2022/02/14 03:02:09;;;;;;;22.33;13.20;;;;;;;4.30;55.91;95606.59;4939149;29;20141;-79
2022/02/14 03:04:34;;;;;;;19.42;13.50;;;;;;;4.31;55.65;95602.25;4952436;29;20064;-79
2022/02/14 03:07:00;;;;;;;19.13;11.80;;;;;;;4.36;55.30;95605.09;4938843;29;20119;-79
2022/02/14 03:09:25;;;;;;;24.50;13.20;;;;;;;4.38;55.46;95605.72;4939083;29;20408;-78
2022/02/14 03:11:51;;;;;;;23.38;12.93;;;;;;;4.43;55.37;95601.66;4938991;29;20043;-79
2022/02/14 03:14:16;;;;;;;24.60;13.95;;;;;;;4.46;55.73;95591.00;4939365;29;20051;-80
2022/02/14 03:16:42;;;;;;;22.15;13.10;;;;;;;4.53;55.47;95593.69;4906331;29;20118;-79
2022/02/14 03:19:07;;;;;;;19.05;13.00;;;;;;;4.61;54.69;95580.75;4920830;23;20047;-79
2022/02/14 03:21:33;;;;;;;20.83;13.27;;;;;;;4.55;54.81;95583.19;4936568;29;20048;-79
2022/02/14 03:23:59;;;;;;;23.45;14.43;;;;;;;4.51;54.74;95582.75;4918441;29;20067;-79
2022/02/14 03:26:24;;;;;;;25.35;12.95;;;;;;;4.49;54.84;95579.56;4913257;29;20098;-79
2022/02/14 03:28:51;;;;;;;22.77;14.95;;;;;;;4.44;55.13;95592.16;4930733;29;20071;-79
2022/02/14 03:31:17;;;;;;;32.05;15.00;;;;;;;4.48;55.61;95583.13;4960394;23;20051;-79
2022/02/14 03:33:43;;;;;;;23.83;14.80;;;;;;;4.51;55.27;95583.56;4937450;29;20048;-78
2022/02/14 03:36:09;;;;;;;20.92;13.95;;;;;;;4.53;55.27;95579.03;4939171;29;20028;-80
2022/02/14 03:38:35;;;;;;;24.63;13.23;;;;;;;4.56;55.37;95577.91;4927960;23;20058;-80
2022/02/14 03:41:00;;;;;;;26.25;13.52;;;;;;;4.44;55.11;95571.56;4958577;29;20103;-79
2022/02/14 03:43:25;;;;;;;25.52;14.02;;;;;;;4.35;55.50;95572.59;4940891;28;20089;-80
2022/02/14 03:45:51;;;;;;;26.83;12.93;;;;;;;4.28;56.19;95582.00;4941298;29;20083;-80
2022/02/14 03:48:17;;;;;;;20.88;12.82;;;;;;;4.22;55.85;95584.28;4939623;29;20035;-80
2022/02/14 03:50:42;;;;;;;25.45;13.70;;;;;;;4.23;56.04;95582.53;4941640;29;20042;-80
2022/02/14 03:53:08;;;;;;;22.80;12.93;;;;;;;4.20;56.05;95570.78;4958276;28;20180;-81
2022/02/14 03:55:34;;;;;;;21.38;12.93;;;;;;;4.21;55.98;95582.69;4909218;29;20027;-78
2022/02/14 03:57:59;;;;;;;22.10;13.80;;;;;;;4.11;56.20;95579.56;4926050;29;20578;-79
2022/02/14 04:00:25;;;;;;;24.08;14.20;;;;;;;3.99;56.40;95580.94;4984454;23;20050;-79
2022/02/14 04:02:50;;;;;;;18.55;12.75;;;;;;;4.06;56.28;95589.56;4978266;28;20118;-79
2022/02/14 04:05:16;;;;;;;24.63;13.68;;;;;;;4.04;56.35;95581.22;4940768;29;20039;-79
2022/02/14 04:07:42;;;;;;;19.70;12.88;;;;;;;3.97;56.68;95585.44;4940876;29;20097;-79
2022/02/14 04:10:09;;;;;;;28.42;13.80;;;;;;;3.94;56.89;95582.44;4966207;23;20507;-80
2022/02/14 04:12:35;;;;;;;19.70;13.77;;;;;;;3.90;57.02;95579.38;4976267;28;20518;-80
2022/02/14 04:15:00;;;;;;;23.67;13.95;;;;;;;3.83;57.23;95574.13;4958458;28;20038;-80
2022/02/14 04:17:26;;;;;;;20.75;13.27;;;;;;;3.75;57.68;95575.97;4959699;28;20034;-80
2022/02/14 04:19:54;;;;;;;22.27;12.73;;;;;;;3.71;57.53;95569.53;4958652;28;20037;-80
2022/02/14 04:22:20;;;;;;;26.75;13.50;;;;;;;3.67;57.81;95568.28;4976511;28;20487;-80
2022/02/14 04:24:45;;;;;;;21.77;14.38;;;;;;;3.70;57.95;95567.94;4976982;28;20030;-80
2022/02/14 04:27:11;;;;;;;23.27;13.82;;;;;;;3.60;58.41;95568.97;4967354;28;20035;-80
2022/02/14 04:29:36;;;;;;;21.25;13.23;;;;;;;3.66;57.74;95574.41;4961954;23;20066;-80
2022/02/14 04:32:02;;;;;;;22.70;15.35;;;;;;;3.71;57.82;95572.13;4975997;28;20081;-80
2022/02/14 04:34:27;;;;;;;20.70;14.38;;;;;;;3.68;58.21;95570.69;4976508;28;20047;-79
2022/02/14 04:36:52;;;;;;;20.92;14.63;;;;;;;3.75;57.68;95570.81;4975740;28;20031;-79
2022/02/14 04:39:18;;;;;;;24.67;14.43;;;;;;;3.75;58.14;95581.09;4960799;28;20130;-78
2022/02/14 04:41:44;;;;;;;27.80;13.50;;;;;;;3.77;57.65;95579.16;4992491;28;20035;-78
2022/02/14 04:44:11;;;;;;;25.58;14.63;;;;;;;3.70;57.64;95578.22;4960841;28;20034;-77
2022/02/14 04:46:37;;;;;;;25.00;14.23;;;;;;;3.70;57.94;95578.22;4957425;28;20043;-79
2022/02/14 04:49:06;;;;;;;22.30;14.30;;;;;;;3.67;57.77;95574.22;4944580;28;20058;-79
2022/02/14 04:51:32;;;;;;;23.27;13.60;;;;;;;3.74;57.69;95579.47;5004734;23;20067;-79
2022/02/14 04:53:57;;;;;;;24.33;14.40;;;;;;;3.76;58.36;95578.38;4938775;29;20039;-77
2022/02/14 04:56:23;;;;;;;23.38;13.93;;;;;;;3.67;57.83;95576.81;4917180;29;20046;-76
2022/02/14 04:58:48;;;;;;;27.33;14.15;;;;;;;3.77;58.04;95590.25;4917208;29;20032;-78
2022/02/14 05:01:14;;;;;;;26.48;14.35;;;;;;;3.79;57.79;95588.31;4916792;29;20051;-77
2022/02/14 05:03:39;;;;;;;23.20;14.38;;;;;;;3.81;57.57;95586.38;4917724;29;20141;-78
2022/02/14 05:06:05;;;;;;;28.75;16.25;;;;;;;3.87;57.84;95590.00;4901608;29;20198;-77
2022/02/14 05:08:30;;;;;;;27.10;16.23;;;;;;;3.98;58.02;95587.06;4917626;29;20479;-77
2022/02/14 05:10:56;;;;;;;26.73;16.10;;;;;;;4.00;57.40;95585.09;4934537;29;20050;-78
2022/02/14 05:13:21;;;;;;;25.40;14.85;;;;;;;4.04;57.35;95596.66;4885712;29;20040;-77
2022/02/14 05:15:47;;;;;;;32.67;16.05;;;;;;;4.17;57.10;95581.44;4901186;29;20035;-78
2022/02/14 05:18:12;;;;;;;23.75;14.80;;;;;;;4.09;56.93;95588.44;4934372;29;20043;-76
2022/02/14 05:20:38;;;;;;;24.15;15.27;;;;;;;4.09;57.71;95581.50;4938334;29;20055;-75
2022/02/14 05:23:03;;;;;;;26.55;14.73;;;;;;;4.16;56.75;95590.13;4936568;29;20119;-81
2022/02/14 05:28:09;;;;;;;28.25;15.38;;;;;;;4.26;56.63;95589.91;4953985;29;20566;-79
2022/02/14 05:30:35;;;;;;;22.67;16.08;;;;;;;4.29;57.09;95599.06;4954231;29;20134;-79
2022/02/14 05:33:00;;;;;;;26.05;15.73;;;;;;;4.21;57.43;95592.19;4938085;29;20530;-77
2022/02/14 05:35:26;;;;;;;26.15;17.08;;;;;;;4.22;57.53;95594.56;4917992;29;20523;-78
2022/02/14 05:37:52;;;;;;;74.10;38.15;;;;;;;4.30;57.87;95590.34;4953693;29;20110;-78
2022/02/14 05:40:18;;;;;;;139.63;68.93;;;;;;;4.31;57.63;95591.94;4952479;29;20066;-76
2022/02/14 05:42:43;;;;;;;156.15;75.55;;;;;;;4.29;57.65;95597.28;4935640;29;20064;-77
2022/02/14 05:45:12;;;;;;;84.32;44.78;;;;;;;4.42;57.48;95594.91;4963982;23;20082;31
2022/02/14 05:47:38;;;;;;;76.05;44.28;;;;;;;4.45;57.44;95599.72;4962718;23;20112;-78
2022/02/14 05:50:04;;;;;;;76.97;36.03;;;;;;;4.48;56.84;95591.63;4945883;28;20036;-77
2022/02/14 05:52:30;;;;;;;94.63;44.85;;;;;;;4.51;57.32;95593.06;4945712;29;20039;-78
2022/02/14 05:54:55;;;;;;;68.60;32.03;;;;;;;4.50;57.23;95591.47;4950055;23;20051;-77
2022/02/14 05:57:21;;;;;;;54.50;26.17;;;;;;;4.51;58.06;95595.63;4939384;29;20038;-77
2022/02/14 05:59:47;;;;;;;38.72;21.90;;;;;;;4.57;57.45;95597.53;4905271;29;20028;-77
2022/02/14 06:02:13;;;;;;;38.50;21.83;;;;;;;4.58;58.65;95601.69;4890944;29;20417;-78
2022/02/14 06:04:38;;;;;;;44.42;23.27;;;;;;;4.64;58.34;95602.78;4907129;29;20051;-77
2022/02/14 06:07:04;;;;;;;36.58;22.15;;;;;;;4.57;58.79;95605.25;4941860;29;20166;-78
2022/02/14 06:09:29;;;;;;;53.10;29.35;;;;;;;4.64;59.13;95613.88;4921811;29;20031;-78
2022/02/14 06:11:57;;;;;;;64.97;41.13;;;;;;;4.64;60.06;95613.88;4910988;29;20120;-78
2022/02/14 06:14:23;;;;;;;73.72;44.22;;;;;;;4.64;60.19;95613.06;4942141;29;20103;-78
2022/02/14 06:16:48;;;;;;;88.20;42.53;;;;;;;4.64;60.68;95613.88;4925140;29;20038;-78
2022/02/14 06:19:14;;;;;;;74.25;37.53;;;;;;;4.69;60.92;95614.13;4905454;29;20399;-77
2022/02/14 06:21:39;;;;;;;73.40;38.65;;;;;;;4.61;61.68;95614.22;4920385;29;20091;-78
2022/02/14 06:24:05;;;;;;;60.75;31.33;;;;;;;4.68;60.00;95614.31;4931349;29;20042;-77
2022/02/14 06:26:32;;;;;;;67.30;33.22;;;;;;;4.58;60.96;95614.59;4941777;29;20031;-77
2022/02/14 06:28:58;;;;;;;61.78;32.22;;;;;;;4.55;61.50;95612.34;4921294;29;20541;-77
2022/02/14 06:31:26;;;;;;;63.17;32.53;;;;;;;4.59;61.64;95621.34;4936702;29;20040;-77
2022/02/14 06:33:52;;;;;;;58.85;32.75;;;;;;;4.58;62.06;95619.72;4921937;29;20052;-76
2022/02/14 06:36:18;;;;;;;92.20;57.38;;;;;;;4.54;62.33;95613.31;4909890;29;20027;-78
2022/02/14 06:38:43;;;;;;;107.88;64.15;;;;;;;4.59;62.55;95617.97;4942309;28;20467;-76
2022/02/14 06:41:09;;;;;;;83.15;45.50;;;;;;;4.57;62.19;95625.88;4910496;29;20043;-78
2022/02/14 06:43:34;;;;;;;71.65;41.42;;;;;;;4.60;61.92;95622.94;4905695;29;20036;-78
2022/02/14 06:46:00;;;;;;;61.47;35.13;;;;;;;4.63;61.52;95627.72;4907088;29;20443;-78
2022/02/14 06:48:25;;;;;;;56.22;30.55;;;;;;;4.61;62.78;95626.31;4929056;28;20078;-78
2022/02/14 06:50:51;;;;;;;48.30;27.50;;;;;;;4.57;63.17;95635.38;4938165;29;20417;-77
2022/02/14 06:53:16;;;;;;;51.40;27.70;;;;;;;4.52;62.49;95638.44;4922160;29;20060;-78
2022/02/14 06:55:42;;;;;;;51.22;27.33;;;;;;;4.53;62.41;95637.47;4921809;29;20049;-78
2022/02/14 06:58:07;;;;;;;68.22;33.72;;;;;;;4.56;63.47;95639.72;4906072;29;20040;-78
2022/02/14 07:00:33;;;;;;;71.25;42.20;;;;;;;4.52;64.19;95639.25;4939997;29;20040;-78
2022/02/14 07:02:59;;;;;;;75.80;44.10;;;;;;;4.54;62.99;95633.91;4907918;29;20059;-81
2022/02/14 07:05:25;;;;;;;81.55;48.85;;;;;;;4.47;63.32;95633.03;4942535;29;20032;-78
2022/02/14 07:07:50;;;;;;;72.80;46.65;;;;;;;4.48;63.93;95635.41;4922555;29;20051;-77
2022/02/14 07:10:16;;;;;;;74.30;42.97;;;;;;;4.56;63.72;95632.00;4903204;29;20515;-77
2022/02/14 07:12:42;;;;;;;63.33;39.03;;;;;;;4.62;64.51;95622.75;4922624;29;20032;-78
2022/02/14 07:15:09;;;;;;;66.25;39.90;;;;;;;4.72;62.81;95625.91;4920848;29;20040;-77
2022/02/14 07:17:35;;;;;;;69.57;39.22;;;;;;;4.67;62.90;95628.97;4905543;29;20032;-77
2022/02/14 07:20:01;;;;;;;77.18;41.55;;;;;;;4.65;64.03;95625.78;4919739;29;20044;-77
2022/02/14 07:22:26;;;;;;;65.70;37.03;;;;;;;4.73;63.37;95623.13;4904764;29;20036;-77
2022/02/14 07:24:51;;;;;;;55.25;34.13;;;;;;;4.77;62.94;95633.88;4930623;29;20043;-77
2022/02/14 07:27:17;;;;;;;54.88;32.28;;;;;;;4.65;63.99;95624.97;4920568;29;20027;-77
2022/02/14 07:29:42;;;;;;;45.72;30.38;;;;;;;4.73;63.15;95630.88;4934748;29;20031;-77
2022/02/14 07:32:08;;;;;;;56.35;32.72;;;;;;;4.77;63.31;95634.69;4907518;29;20039;-77
2022/02/14 07:34:34;;;;;;;54.45;34.55;;;;;;;4.85;62.80;95635.56;4924768;29;20068;-78
2022/02/14 07:37:02;;;;;;;63.15;34.13;;;;;;;4.74;63.61;95635.03;4925450;29;20043;-78
2022/02/14 07:39:31;;;;;;;51.25;30.42;;;;;;;4.86;62.79;95632.03;4911860;29;20512;-79
2022/02/14 07:41:57;;;;;;;46.30;30.58;;;;;;;4.76;62.94;95638.25;4911456;29;20039;-77
2022/02/14 07:44:23;;;;;;;43.78;29.48;;;;;;;4.77;62.92;95639.84;4923923;29;20024;-77
2022/02/14 07:46:51;;;;;;;46.40;28.33;;;;;;;4.82;63.18;95637.53;4933106;29;20065;-77
2022/02/14 07:49:20;;;;;;;45.95;28.50;;;;;;;4.86;63.07;95632.03;4907509;29;20170;-77
2022/02/14 07:51:45;;;;;;;34.30;23.33;;;;;;;4.97;63.53;95637.56;4905876;29;20043;-78
2022/02/14 07:54:11;;;;;;;36.42;23.85;;;;;;;4.95;62.84;95623.25;4923642;29;20040;-78
2022/02/14 07:56:37;;;;;;;34.15;23.38;;;;;;;4.96;63.06;95630.00;4906083;29;20032;-77
2022/02/14 07:59:03;;;;;;;35.83;24.80;;;;;;;4.97;62.45;95626.44;4907470;29;20427;-78
2022/02/14 08:01:29;;;;;;;31.67;21.35;;;;;;;5.00;62.99;95629.47;4922735;29;20031;-77
2022/02/14 08:03:54;;;;;;;36.03;22.77;;;;;;;5.11;61.79;95626.44;4938987;29;20090;-78
2022/02/14 08:06:20;;;;;;;40.60;24.33;;;;;;;5.15;62.32;95626.88;4937527;29;20050;-77
2022/02/14 08:08:45;;;;;;;45.15;25.05;;;;;;;5.12;62.06;95620.31;4924548;29;20046;-77
2022/02/14 08:11:11;;;;;;;39.80;24.52;;;;;;;5.10;62.19;95618.91;4939870;29;20043;-77
2022/02/14 08:13:36;;;;;;;35.03;23.75;;;;;;;5.09;62.98;95627.63;4891918;29;20036;-77
2022/02/14 08:16:02;;;;;;;32.08;22.55;;;;;;;5.19;61.96;95624.75;4923627;29;20048;-77
2022/02/14 08:18:27;;;;;;;40.75;25.25;;;;;;;5.26;62.16;95625.66;4923107;29;20027;-77
2022/02/14 08:20:52;;;;;;;48.42;25.10;;;;;;;5.38;61.34;95625.03;4891302;29;20042;-77
2022/02/14 08:23:18;;;;;;;35.72;24.73;;;;;;;5.32;62.14;95627.50;4907722;29;20039;-77
2022/02/14 08:25:44;;;;;;;42.20;26.52;;;;;;;5.31;61.81;95626.72;4907951;29;20031;-77
2022/02/14 08:28:09;;;;;;;44.25;28.45;;;;;;;5.29;62.14;95623.50;4906538;29;20028;-77
2022/02/14 08:30:35;;;;;;;48.10;29.90;;;;;;;5.33;61.57;95623.94;4906826;29;20040;-77
2022/02/14 08:33:00;;;;;;;42.28;29.30;;;;;;;5.46;61.46;95628.47;4955997;23;20054;-77
2022/02/14 08:35:26;;;;;;;50.90;35.47;;;;;;;5.47;61.06;95625.72;4961880;23;20111;-77
2022/02/14 08:37:53;;;;;;;59.00;34.70;;;;;;;5.58;60.92;95621.88;4970066;23;20844;-77
2022/02/14 08:40:21;;;;;;;53.22;33.38;;;;;;;5.56;61.45;95621.28;4958179;28;20031;-77
2022/02/14 08:42:46;;;;;;;54.78;33.45;;;;;;;5.61;61.23;95613.78;4962807;28;20387;-77
2022/02/14 08:45:12;;;;;;;53.25;34.22;;;;;;;5.77;60.56;95621.31;4964195;28;20042;-77
2022/02/14 08:47:38;;;;;;;52.25;34.28;;;;;;;5.82;60.17;95618.97;4931479;28;20038;-77
2022/02/14 08:50:04;;;;;;;54.47;34.90;;;;;;;5.83;60.15;95615.41;4963242;28;20042;-77
2022/02/14 08:52:30;;;;;;;53.80;34.40;;;;;;;5.84;60.57;95618.78;4946284;28;20031;-77
2022/02/14 08:54:56;;;;;;;56.15;34.47;;;;;;;5.85;61.03;95616.03;4963372;28;20498;-77
2022/02/14 08:57:21;;;;;;;54.30;34.85;;;;;;;5.97;59.97;95622.34;4960864;28;20035;-77
2022/02/14 08:59:47;;;;;;;55.10;35.92;;;;;;;5.95;60.57;95616.56;4962018;28;20067;-77
2022/02/14 09:02:13;;;;;;;61.50;38.70;;;;;;;5.97;60.51;95614.59;4944609;28;20027;-77
2022/02/14 09:04:39;;;;;;;55.97;36.28;;;;;;;6.16;60.43;95614.97;4958431;23;20050;-77
2022/02/14 09:07:04;;;;;;;64.75;38.83;;;;;;;6.32;59.22;95614.72;4950777;29;20051;-77
2022/02/14 09:09:30;;;;;;;60.13;39.00;;;;;;;6.49;59.18;95617.84;4947375;29;20531;-76
2022/02/14 09:11:56;;;;;;;57.90;39.80;;;;;;;6.47;59.26;95612.06;4957601;29;20068;-76
2022/02/14 09:14:21;;;;;;;63.03;38.90;;;;;;;6.51;58.99;95614.13;4945419;29;20035;-77
2022/02/14 09:16:49;;;;;;;74.00;43.78;;;;;;;6.51;58.40;95616.69;4972955;23;20052;-77
2022/02/14 09:19:14;;;;;;;65.95;42.58;;;;;;;6.57;57.98;95618.53;4913139;29;20040;-77
2022/02/14 09:21:42;;;;;;;62.72;40.83;;;;;;;6.59;57.17;95615.75;5030443;23;20053;-77
2022/02/14 09:24:12;;;;;;;74.13;41.70;;;;;;;6.43;57.83;95621.97;4929923;23;20045;-77
2022/02/14 09:26:41;;;;;;;68.72;43.70;;;;;;;6.32;57.88;95615.53;4915827;29;20086;-77
2022/02/14 09:29:08;;;;;;;66.93;42.05;;;;;;;6.26;58.76;95618.84;4921303;29;20040;-80
2022/02/14 09:31:33;;;;;;;67.03;43.75;;;;;;;6.18;58.48;95618.16;4900417;29;20039;-78
2022/02/14 09:33:58;;;;;;;73.35;45.65;;;;;;;6.20;58.50;95622.19;4917549;29;20036;-77
2022/02/14 09:36:24;;;;;;;74.10;45.72;;;;;;;6.21;58.81;95617.81;4917831;29;20028;-77
2022/02/14 09:38:49;;;;;;;70.70;46.25;;;;;;;6.30;59.16;95627.03;4912994;29;20449;-77
2022/02/14 09:41:16;;;;;;;76.18;46.15;;;;;;;6.26;59.48;95620.63;4912710;29;20096;-77
2022/02/14 09:43:44;;;;;;;74.70;43.75;;;;;;;6.32;59.00;95625.06;4896072;29;20040;-77
2022/02/14 09:46:11;;;;;;;74.22;45.50;;;;;;;6.38;58.08;95624.34;4880828;29;20060;-77
2022/02/14 09:48:36;;;;;;;71.82;45.38;;;;;;;6.32;58.66;95617.31;4880485;29;20024;-77
2022/02/14 09:51:02;;;;;;;73.03;45.60;;;;;;;6.33;59.60;95621.50;4918011;23;20194;-78
2022/02/14 09:53:27;;;;;;;83.05;48.90;;;;;;;6.38;59.02;95616.59;4923235;29;20103;-77
2022/02/14 09:55:53;;;;;;;83.80;47.60;;;;;;;6.38;58.95;95613.19;4915315;29;20710;-78
2022/02/14 09:58:18;;;;;;;86.25;49.03;;;;;;;6.48;57.71;95614.47;4909184;29;20615;-79
2022/02/14 10:00:44;;;;;;;79.78;49.10;;;;;;;6.52;58.43;95615.72;4918102;29;20466;-78
2022/02/14 10:03:10;;;;;;;74.50;48.63;;;;;;;6.63;57.50;95610.00;4902332;29;20575;-78
2022/02/14 10:05:49;;;;;;;87.10;50.97;;;;;;;6.68;57.54;95604.31;4933572;29;20114;-78
2022/02/14 10:08:31;;;;;;;83.25;51.35;;;;;;;6.83;57.96;95606.78;4934313;29;20044;-79
2022/02/14 10:11:10;;;;;;;85.75;49.92;;;;;;;6.96;58.34;95611.22;4933678;29;20031;-78
2022/02/14 10:13:37;;;;;;;84.00;48.83;;;;;;;7.11;58.54;95597.22;4901369;29;20063;-78
2022/02/14 10:16:07;;;;;;;90.35;48.95;;;;;;;7.30;56.28;95597.50;4916838;29;20047;-78
2022/02/14 10:18:34;;;;;;;76.03;48.15;;;;;;;7.53;55.72;95593.63;4899527;29;20043;-78
2022/02/14 10:21:20;;;;;;;82.45;51.13;;;;;;;7.69;55.14;95584.72;4915994;29;20035;-78
2022/02/14 10:24:08;;;;;;;79.45;46.25;;;;;;;7.69;54.01;95582.16;4933016;29;20496;-78
2022/02/14 10:26:47;;;;;;;74.88;48.13;;;;;;;7.87;54.42;95578.22;4900911;29;20170;-78
2022/02/14 10:29:31;;;;;;;78.57;46.22;;;;;;;7.99;54.16;95577.44;4910798;29;20091;-78
2022/02/14 10:32:00;;;;;;;75.00;48.50;;;;;;;7.95;54.95;95565.06;4900111;29;20118;-78
2022/02/14 10:34:28;;;;;;;76.07;47.05;;;;;;;8.06;53.50;95561.91;4933654;29;20167;-78
2022/02/14 10:36:53;;;;;;;72.20;48.42;;;;;;;8.14;54.42;95553.97;4933341;29;20048;-78
2022/02/14 10:39:23;;;;;;;75.78;51.00;;;;;;;8.07;55.07;95560.91;4921462;29;20043;-77
2022/02/14 10:41:59;;;;;;;87.93;52.30;;;;;;;8.08;54.66;95549.56;4937741;29;20038;-78
2022/02/14 10:47:15;;;;;;;76.50;50.58;;;;;;;7.93;54.82;95541.16;4934184;29;20070;-77
2022/02/14 10:49:41;;;;;;;77.93;51.15;;;;;;;7.75;54.43;95545.09;4900956;29;20044;-77
2022/02/14 10:52:09;;;;;;;79.60;51.22;;;;;;;7.84;55.37;95532.78;4882976;29;20047;-77
2022/02/14 10:54:39;;;;;;;87.18;51.10;;;;;;;8.12;54.44;95527.44;4914753;29;20036;-77
2022/02/14 10:57:04;;;;;;;84.30;53.30;;;;;;;7.89;53.84;95527.00;4884627;29;20031;-78
2022/02/14 10:59:31;;;;;;;90.30;52.70;;;;;;;7.86;54.91;95525.63;4914730;29;20492;-77
2022/02/14 11:01:56;;;;;;;85.28;52.33;;;;;;;7.96;54.25;95531.19;4916214;29;20043;-77
2022/02/14 11:04:22;;;;;;;79.63;50.33;;;;;;;7.96;54.42;95520.03;4901814;29;20962;-77
2022/02/14 11:06:48;;;;;;;83.45;52.60;;;;;;;7.83;54.13;95526.81;4901188;29;20749;-78
2022/02/14 11:09:14;;;;;;;89.80;50.92;;;;;;;7.67;55.41;95509.06;4934852;29;20039;-77
2022/02/14 11:11:39;;;;;;;84.75;51.15;;;;;;;7.66;55.78;95511.84;4917503;29;20412;-77
2022/02/14 11:14:05;;;;;;;76.72;48.13;;;;;;;7.59;54.50;95513.63;4934699;29;20499;-77
2022/02/14 11:16:32;;;;;;;76.97;48.70;;;;;;;7.53;55.78;95520.38;4894750;29;20118;-77
2022/02/14 11:18:57;;;;;;;74.93;48.95;;;;;;;7.37;55.58;95523.31;4911690;23;20068;-77
2022/02/14 11:21:27;;;;;;;73.38;47.30;;;;;;;7.43;55.21;95519.94;4905395;29;20040;-77
2022/02/14 11:23:55;;;;;;;79.78;47.72;;;;;;;7.53;56.31;95505.66;4904886;29;20041;-77
2022/02/14 11:26:25;;;;;;;73.00;47.25;;;;;;;7.64;55.85;95499.09;4905921;29;20040;-77
2022/02/14 11:29:13;;;;;;;70.90;46.38;;;;;;;7.81;55.39;95497.75;4914018;29;20040;-77